Time;durP1;ratioP1;P1;durP2;ratioP2;P2;SDS_P1;SDS_P2;PMS_P1;PMS_P2;Temp;Humidity;BMP_temperature;BMP_pressure;BME280_temperature;BME280_humidity;BME280_pressure;Samples;Min_cycle;Max_cycle;Signal;HPM_P1;HPM_P2
2022/09/10 00:02:19;;;;;;;24.13;9.10;;;;;;;20.81;83.76;94764.53;5092603;28;20746;-79
2022/09/10 00:04:44;;;;;;;16.70;8.70;;;;;;;20.79;82.94;94760.50;5092205;28;20261;-78
2022/09/10 00:07:10;;;;;;;19.08;8.20;;;;;;;20.67;83.08;94755.47;5092451;28;20676;-78
2022/09/10 00:09:36;;;;;;;28.65;8.45;;;;;;;20.61;83.29;94748.56;5092554;28;20210;-78
2022/09/10 00:12:02;;;;;;;12.90;7.22;;;;;;;20.65;83.12;94752.31;5092328;28;20213;-78
2022/09/10 00:14:27;;;;;;;11.18;7.40;;;;;;;20.72;83.26;94768.84;5092411;28;20185;-78
2022/09/10 00:16:53;;;;;;;17.30;8.02;;;;;;;20.70;83.64;94761.09;5092099;28;20227;-78
2022/09/10 00:19:20;;;;;;;9.88;7.70;;;;;;;20.77;84.03;94770.69;5092485;28;20212;-78
2022/09/10 00:21:46;;;;;;;29.75;8.27;;;;;;;20.68;84.68;94751.72;5092301;28;20177;-78
2022/09/10 00:24:12;;;;;;;13.45;7.47;;;;;;;20.83;84.14;94777.63;5091781;28;20181;-78
2022/09/10 00:26:38;;;;;;;13.75;7.65;;;;;;;20.80;83.92;94775.50;5092225;28;20318;-78
2022/09/10 00:29:07;;;;;;;16.23;11.10;;;;;;;20.73;84.16;94758.94;5092697;28;20165;-78
2022/09/10 00:31:33;;;;;;;26.45;13.90;;;;;;;20.80;84.54;94765.59;5092194;28;20178;-78
2022/09/10 00:34:01;;;;;;;15.63;8.52;;;;;;;20.82;84.30;94774.16;5091944;28;20165;-78
2022/09/10 00:36:29;;;;;;;17.98;8.80;;;;;;;20.78;84.26;94773.09;5092200;28;20177;-78
2022/09/10 00:38:58;;;;;;;32.05;14.73;;;;;;;20.78;84.27;94766.94;5091793;28;20567;-79
2022/09/10 00:41:25;;;;;;;39.58;23.52;;;;;;;20.81;84.47;94769.88;5092165;28;20174;-78
2022/09/10 00:43:59;;;;;;;31.17;19.70;;;;;;;20.68;84.36;94746.38;5073886;28;20656;-78
2022/09/10 00:46:30;;;;;;;36.83;19.38;;;;;;;20.87;84.14;94767.94;5091745;28;20221;-78
2022/09/10 00:48:57;;;;;;;40.00;21.02;;;;;;;20.90;83.98;94776.25;5092123;28;20178;-79
2022/09/10 00:51:25;;;;;;;33.20;16.70;;;;;;;20.68;83.44;94747.19;5091930;28;20188;-78
2022/09/10 00:53:51;;;;;;;26.80;16.65;;;;;;;20.80;83.65;94770.94;5092304;28;20196;-78
2022/09/10 00:56:16;;;;;;;25.90;12.93;;;;;;;20.81;84.21;94766.41;5092235;28;20861;-78
2022/09/10 00:58:44;;;;;;;25.00;13.88;;;;;;;20.68;83.96;94754.41;5091721;28;20547;-78
2022/09/10 01:01:10;;;;;;;23.50;13.13;;;;;;;20.88;83.48;94766.88;5092716;28;20858;-78
2022/09/10 01:03:37;;;;;;;28.17;14.60;;;;;;;20.80;83.58;94744.19;5095584;28;20239;-78
2022/09/10 01:06:04;;;;;;;28.20;14.90;;;;;;;20.92;83.70;94765.25;5095896;28;20631;-78
2022/09/10 01:08:30;;;;;;;24.50;11.63;;;;;;;20.96;83.74;94759.06;5096103;28;20173;-79
2022/09/10 01:10:58;;;;;;;20.67;12.10;;;;;;;20.93;83.28;94756.16;5095803;28;20264;-78
2022/09/10 01:13:48;;;;;;;24.10;10.90;;;;;;;20.78;83.30;94735.63;5095645;28;20179;-78
2022/09/10 01:16:19;;;;;;;13.90;8.40;;;;;;;20.86;83.50;94752.97;5095601;28;20249;-78
2022/09/10 01:18:48;;;;;;;19.63;9.55;;;;;;;20.85;83.54;94757.53;5095874;28;20178;-78
2022/09/10 01:21:13;;;;;;;13.60;9.35;;;;;;;20.86;83.44;94753.78;5095651;28;20734;-78
2022/09/10 01:24:23;;;;;;;19.70;9.82;;;;;;;20.89;84.11;94747.88;5095422;28;20174;-79
2022/09/10 01:27:05;;;;;;;14.65;7.95;;;;;;;20.94;83.58;94747.03;5092026;28;20680;-78
2022/09/10 01:29:57;;;;;;;12.75;8.50;;;;;;;20.96;82.96;94734.16;5095501;28;20231;-79
2022/09/10 01:32:32;;;;;;;26.98;15.90;;;;;;;20.93;83.11;94730.16;5095487;28;20178;-78
2022/09/10 01:35:14;;;;;;;18.23;9.60;;;;;;;20.94;83.18;94725.63;5076967;28;20193;-79
2022/09/10 01:37:43;;;;;;;11.88;7.93;;;;;;;20.99;82.82;94728.28;5095609;28;20172;-79
2022/09/10 01:40:10;;;;;;;21.65;12.30;;;;;;;20.94;82.71;94739.81;5094774;28;20224;-79
2022/09/10 01:42:38;;;;;;;26.67;18.42;;;;;;;20.94;83.49;94725.63;5095092;28;20547;-78
2022/09/10 01:45:04;;;;;;;31.20;16.15;;;;;;;21.00;83.33;94725.31;5094644;28;20169;-78
2022/09/10 01:47:35;;;;;;;16.27;9.27;;;;;;;21.02;82.90;94733.06;5095248;28;20311;-78
2022/09/10 01:50:11;;;;;;;30.80;15.82;;;;;;;21.03;83.07;94731.97;5094730;28;20169;-78
2022/09/10 01:52:47;;;;;;;16.50;8.40;;;;;;;20.95;83.22;94725.34;5087051;28;20333;-78
2022/09/10 01:55:21;;;;;;;12.43;7.50;;;;;;;20.98;83.74;94748.09;5094873;28;20180;-79
2022/09/10 01:58:03;;;;;;;15.02;8.00;;;;;;;20.96;83.93;94747.56;5095205;28;20187;-78
2022/09/10 02:00:32;;;;;;;12.27;7.45;;;;;;;20.94;83.62;94747.03;5094973;28;20174;-78
2022/09/10 02:03:03;;;;;;;15.05;8.35;;;;;;;20.98;84.15;94759.59;5094868;28;20168;-78
2022/09/10 02:05:30;;;;;;;17.17;9.00;;;;;;;20.97;84.15;94757.19;5094975;28;20201;-78
2022/09/10 02:08:02;;;;;;;15.43;8.07;;;;;;;20.95;84.65;94762.00;5094477;28;20677;-78
2022/09/10 02:10:28;;;;;;;13.73;9.30;;;;;;;20.89;84.82;94753.22;5094382;28;20177;-78
2022/09/10 02:12:54;;;;;;;19.70;9.55;;;;;;;20.64;84.52;94708.69;5093936;28;20235;-78
2022/09/10 02:15:22;;;;;;;16.23;8.23;;;;;;;20.94;84.28;94749.69;5094499;28;20193;-79
2022/09/10 02:17:48;;;;;;;15.50;9.07;;;;;;;20.94;84.81;94739.00;5094436;28;20174;-79
2022/09/10 02:20:14;;;;;;;16.10;8.45;;;;;;;20.81;83.92;94745.78;5094434;28;20193;-78
2022/09/10 02:22:47;;;;;;;14.27;8.70;;;;;;;20.75;85.25;94757.59;5094243;28;20178;-78
2022/09/10 02:25:13;;;;;;;20.75;8.15;;;;;;;20.74;85.33;94741.81;5094328;28;20574;-78
2022/09/10 02:27:38;;;;;;;19.80;9.85;;;;;;;20.77;85.17;94752.75;5094321;28;20179;-78
2022/09/10 02:30:05;;;;;;;18.38;8.27;;;;;;;20.76;84.93;94748.47;5094298;28;20174;-78
2022/09/10 02:32:31;;;;;;;17.02;8.95;;;;;;;20.53;85.20;94711.69;5094297;28;20178;-79
2022/09/10 02:34:57;;;;;;;17.52;8.68;;;;;;;20.84;85.28;94747.91;5094217;28;20177;-79
2022/09/10 02:37:23;;;;;;;13.85;9.05;;;;;;;20.87;85.41;94755.38;5094451;28;20205;-78
2022/09/10 02:39:48;;;;;;;19.35;9.38;;;;;;;20.93;84.69;94758.84;5094147;28;20252;-79
2022/09/10 02:42:15;;;;;;;16.55;7.97;;;;;;;20.91;84.85;94758.31;5094240;28;20178;-78
2022/09/10 02:44:41;;;;;;;13.38;8.10;;;;;;;20.91;84.42;94760.97;5094009;28;20571;-78
2022/09/10 02:47:06;;;;;;;19.05;7.80;;;;;;;20.84;84.83;94747.91;5093928;28;20205;-78
2022/09/10 02:49:33;;;;;;;20.60;7.70;;;;;;;20.91;84.55;94751.09;5093875;28;20647;-78
2022/09/10 02:52:01;;;;;;;12.15;7.25;;;;;;;20.92;85.09;94758.03;5093749;28;20169;-79
2022/09/10 02:54:27;;;;;;;15.30;8.25;;;;;;;20.92;84.67;94766.06;5094012;28;20204;-78
2022/09/10 02:56:53;;;;;;;12.15;8.02;;;;;;;20.89;84.68;94760.44;5093923;28;20220;-78
2022/09/10 02:59:18;;;;;;;15.10;7.50;;;;;;;20.49;84.94;94711.47;5093570;28;20181;-78
2022/09/10 03:01:44;;;;;;;13.65;8.20;;;;;;;20.78;84.96;94759.72;5093652;28;20516;-79
2022/09/10 03:04:09;;;;;;;12.52;7.10;;;;;;;20.82;84.89;94768.00;5093243;28;20607;-79
2022/09/10 03:06:35;;;;;;;18.98;7.38;;;;;;;20.81;84.78;94759.16;5093424;28;20277;-79
2022/09/10 03:09:01;;;;;;;13.13;7.10;;;;;;;20.67;85.10;94731.41;5093385;28;20212;-79
2022/09/10 03:11:26;;;;;;;16.73;7.55;;;;;;;20.80;85.26;94751.41;5093250;28;20661;-78
2022/09/10 03:13:52;;;;;;;10.75;7.28;;;;;;;20.80;85.73;94759.44;5093389;28;20170;-78
2022/09/10 03:16:19;;;;;;;12.48;7.65;;;;;;;20.80;85.60;94754.88;5093216;28;20598;-78
2022/09/10 03:18:45;;;;;;;16.25;7.78;;;;;;;20.68;85.37;94735.69;5075410;28;20178;-78
2022/09/10 03:21:23;;;;;;;11.32;7.50;;;;;;;20.83;85.06;94758.91;5093504;28;20173;-79
2022/09/10 03:23:51;;;;;;;15.85;7.60;;;;;;;20.84;85.21;94755.16;5084889;28;20207;-79
2022/09/10 03:26:19;;;;;;;11.15;7.07;;;;;;;20.83;84.58;94756.22;5093460;28;20194;-79
2022/09/10 03:28:45;;;;;;;13.02;6.88;;;;;;;20.74;85.33;94755.19;5093387;28;20188;-79
2022/09/10 03:31:12;;;;;;;12.35;7.38;;;;;;;20.64;85.13;94730.09;5093098;28;20186;-79
2022/09/10 03:33:39;;;;;;;9.40;6.95;;;;;;;20.52;84.89;94710.09;5093233;28;20170;-79
2022/09/10 03:36:05;;;;;;;11.45;7.28;;;;;;;20.47;85.38;94713.63;5092666;28;20603;-78
2022/09/10 03:38:31;;;;;;;12.85;7.35;;;;;;;20.47;85.37;94721.63;5092694;28;20190;-78
2022/09/10 03:40:56;;;;;;;10.75;7.05;;;;;;;20.60;84.99;94741.63;5092438;28;20210;-78
2022/09/10 03:43:22;;;;;;;12.25;7.60;;;;;;;20.60;84.70;94745.09;5092801;28;20178;-78
2022/09/10 03:45:49;;;;;;;12.32;7.05;;;;;;;20.65;85.06;94738.94;5092401;28;20582;-78
2022/09/10 03:48:16;;;;;;;17.67;7.35;;;;;;;20.68;84.89;94733.00;5092691;28;20185;-78
2022/09/10 03:50:43;;;;;;;10.98;7.38;;;;;;;20.61;84.71;94717.25;5092518;28;20173;-78
2022/09/10 03:53:10;;;;;;;11.15;7.07;;;;;;;20.60;84.84;94726.38;5084446;28;20182;-78
2022/09/10 03:55:35;;;;;;;16.23;7.32;;;;;;;20.40;85.33;94690.94;5092406;28;20583;-78
2022/09/10 03:58:00;;;;;;;19.73;7.82;;;;;;;20.69;85.65;94722.03;5092499;28;20189;-78
2022/09/10 04:00:26;;;;;;;11.18;6.93;;;;;;;20.68;85.00;94727.66;5092245;28;20565;-78
2022/09/10 04:02:52;;;;;;;13.27;7.35;;;;;;;20.67;85.29;94724.19;5092675;28;20180;-78
2022/09/10 04:05:18;;;;;;;11.77;7.40;;;;;;;20.68;85.46;94731.13;5092464;28;20178;-78
2022/09/10 04:07:44;;;;;;;13.07;7.25;;;;;;;20.63;85.26;94725.81;5092708;28;20252;-78
2022/09/10 04:10:09;;;;;;;11.82;7.90;;;;;;;20.47;85.74;94720.84;5074347;28;20200;-78
2022/09/10 04:12:35;;;;;;;13.07;7.18;;;;;;;20.33;86.22;94713.38;5092375;28;20177;-78
2022/09/10 04:15:03;;;;;;;14.25;8.82;;;;;;;20.50;86.69;94733.63;5092363;28;20645;-78
2022/09/10 04:17:28;;;;;;;21.80;12.60;;;;;;;20.52;86.20;94726.94;5083767;28;20664;-78
2022/09/10 04:19:53;;;;;;;31.20;17.25;;;;;;;20.57;86.30;94745.66;5092383;28;20158;-78
2022/09/10 04:22:19;;;;;;;23.00;14.20;;;;;;;20.57;86.86;94751.00;5092144;28;20181;-78
2022/09/10 04:24:44;;;;;;;47.40;28.55;;;;;;;20.50;86.28;94745.13;5092071;28;20169;-78
2022/09/10 04:27:10;;;;;;;20.08;11.40;;;;;;;20.48;86.03;94751.84;5092065;28;20255;-78
2022/09/10 04:29:36;;;;;;;15.02;9.13;;;;;;;20.60;86.18;94771.84;5091949;28;20178;-78
2022/09/10 04:32:02;;;;;;;19.67;10.70;;;;;;;20.55;86.69;94749.69;5074109;28;20203;-78
2022/09/10 04:34:28;;;;;;;24.77;11.25;;;;;;;20.59;86.39;94750.72;5092339;28;20177;-78
2022/09/10 04:36:53;;;;;;;17.98;10.50;;;;;;;20.38;86.31;94720.63;5091754;28;20204;-78
2022/09/10 04:39:19;;;;;;;19.92;11.60;;;;;;;20.63;86.29;94749.91;5091683;28;20248;-78
2022/09/10 04:41:44;;;;;;;30.23;15.18;;;;;;;20.72;86.36;94755.47;5091406;28;20181;-78
2022/09/10 04:44:09;;;;;;;23.30;10.27;;;;;;;20.72;86.72;94742.09;5090743;28;20166;-78
2022/09/10 04:46:35;;;;;;;12.68;8.98;;;;;;;20.74;86.43;94747.97;5091942;28;20221;-78
2022/09/10 04:49:01;;;;;;;15.80;9.55;;;;;;;20.67;85.62;94739.44;5083352;28;20173;-78
2022/09/10 04:51:26;;;;;;;15.73;9.43;;;;;;;20.49;85.84;94703.44;5091698;28;20185;-78
2022/09/10 04:53:52;;;;;;;19.02;8.07;;;;;;;20.64;85.45;94730.09;5091645;28;20245;-78
2022/09/10 04:56:19;;;;;;;23.33;8.75;;;;;;;20.64;84.77;94726.63;5091836;28;20174;-78
2022/09/10 04:58:45;;;;;;;20.90;11.00;;;;;;;20.61;85.64;94729.84;5091545;28;20180;-78
2022/09/10 05:01:10;;;;;;;22.13;10.73;;;;;;;20.63;86.34;94733.03;5091685;28;20166;-79
2022/09/10 05:03:35;;;;;;;17.00;8.63;;;;;;;20.64;85.34;94724.75;5091900;28;20551;-78
2022/09/10 05:06:02;;;;;;;17.67;10.38;;;;;;;20.70;85.34;94742.38;5091673;28;20586;-78
2022/09/10 05:08:28;;;;;;;14.25;7.93;;;;;;;20.68;85.68;94725.78;5091563;28;20181;-78
2022/09/10 05:10:53;;;;;;;13.68;8.57;;;;;;;20.82;85.93;94738.56;5091613;28;20212;-78
2022/09/10 05:13:19;;;;;;;18.63;9.77;;;;;;;20.72;86.08;94720.69;5091542;28;20657;-79
2022/09/10 05:15:44;;;;;;;17.50;8.48;;;;;;;20.78;86.58;94737.50;5091647;28;20170;-79
2022/09/10 05:18:10;;;;;;;16.80;8.75;;;;;;;20.95;86.07;94762.00;5091898;28;20178;-79
2022/09/10 05:20:36;;;;;;;17.48;8.63;;;;;;;20.84;86.38;94745.25;5091640;28;20190;-79
2022/09/10 05:23:05;;;;;;;19.17;9.23;;;;;;;20.76;86.45;94723.63;5092065;28;20178;-79
2022/09/10 05:25:30;;;;;;;21.80;9.35;;;;;;;21.06;85.71;94763.56;5092014;28;20190;-79
2022/09/10 05:27:55;;;;;;;21.52;10.45;;;;;;;21.12;85.02;94772.34;5091794;28;20540;-79
2022/09/10 05:30:21;;;;;;;20.95;14.07;;;;;;;21.08;84.64;94774.78;5091753;28;20185;-80
2022/09/10 05:32:46;;;;;;;22.55;14.65;;;;;;;21.09;84.89;94771.03;5090536;28;20177;-79
2022/09/10 05:35:12;;;;;;;27.63;13.63;;;;;;;21.05;84.58;94767.31;5090404;28;20261;-78
2022/09/10 05:37:38;;;;;;;36.92;21.77;;;;;;;21.09;84.69;94753.09;5090607;28;20166;-79
2022/09/10 05:40:06;;;;;;;42.88;23.90;;;;;;;21.15;84.80;94761.09;5072498;28;20220;-79
2022/09/10 05:42:31;;;;;;;46.38;30.55;;;;;;;21.10;84.08;94748.56;5091743;28;20158;-79
2022/09/10 05:44:57;;;;;;;42.88;28.10;;;;;;;21.17;84.47;94757.09;5090753;28;20251;-79
2022/09/10 05:47:23;;;;;;;20.65;11.43;;;;;;;21.19;83.99;94756.81;5091424;28;20232;-79
2022/09/10 05:49:48;;;;;;;16.15;9.52;;;;;;;21.26;82.57;94760.78;5094216;28;21729;-79
2022/09/10 05:52:14;;;;;;;16.33;8.10;;;;;;;21.29;82.47;94749.47;5094228;28;20215;-79
2022/09/10 05:54:40;;;;;;;17.80;11.25;;;;;;;21.41;82.46;94757.16;5076591;28;20197;-79
2022/09/10 05:57:06;;;;;;;19.75;10.82;;;;;;;21.47;81.78;94758.72;5094220;28;20598;-79
2022/09/10 05:59:33;;;;;;;19.63;13.63;;;;;;;21.73;81.15;94761.97;5094110;28;20239;-79
2022/09/10 06:01:59;;;;;;;18.85;11.10;;;;;;;22.01;80.73;94750.44;5094008;28;20251;-78
2022/09/10 06:04:25;;;;;;;15.27;10.45;;;;;;;22.59;79.64;94767.19;5094206;28;20194;-78
2022/09/10 06:06:50;;;;;;;17.20;10.68;;;;;;;23.07;76.11;94759.06;5093233;28;20197;-78
2022/09/10 06:09:16;;;;;;;20.15;9.05;;;;;;;23.59;74.38;94765.28;5093763;28;20165;-78
2022/09/10 06:11:42;;;;;;;14.45;8.50;;;;;;;23.75;71.66;94768.50;5094124;28;20250;-78
2022/09/10 06:14:07;;;;;;;19.42;9.70;;;;;;;23.75;71.59;94766.59;5093939;28;20174;-79
2022/09/10 06:16:33;;;;;;;12.02;8.15;;;;;;;23.73;72.21;94765.28;5093428;28;20169;-78
2022/09/10 06:18:58;;;;;;;20.98;13.60;;;;;;;23.70;70.78;94780.91;5094285;28;20185;-78
2022/09/10 06:21:24;;;;;;;26.05;12.73;;;;;;;23.61;71.59;94771.94;5093638;28;20253;-78
2022/09/10 06:23:53;;;;;;;14.90;9.80;;;;;;;23.32;71.60;94739.88;5093715;28;20170;-78
2022/09/10 06:26:19;;;;;;;13.60;9.63;;;;;;;23.44;72.27;94760.88;5093248;28;20216;-78
2022/09/10 06:28:45;;;;;;;15.43;8.43;;;;;;;23.56;71.73;94771.22;5092362;28;20550;-78
2022/09/10 06:31:15;;;;;;;11.50;7.60;;;;;;;23.57;70.93;94770.94;5093565;28;20264;-78
2022/09/10 06:33:41;;;;;;;13.90;7.90;;;;;;;23.49;70.55;94760.06;5093113;28;20851;-79
2022/09/10 06:36:08;;;;;;;17.27;10.52;;;;;;;23.46;70.30;94760.59;5093259;28;20170;-78
2022/09/10 06:38:35;;;;;;;18.80;9.73;;;;;;;23.56;70.69;94774.72;5092782;28;20193;-78
2022/09/10 06:41:03;;;;;;;22.40;8.80;;;;;;;23.63;71.06;94772.44;5092814;28;20209;-78
2022/09/10 06:43:32;;;;;;;13.60;10.43;;;;;;;23.79;71.43;94781.03;5093181;28;20289;-78
2022/09/10 06:45:58;;;;;;;15.38;7.65;;;;;;;23.74;71.56;94738.13;5092848;28;20229;-78
2022/09/10 06:48:27;;;;;;;17.17;8.75;;;;;;;24.22;70.04;94772.75;5092871;28;20600;-78
2022/09/10 06:51:01;;;;;;;20.33;7.32;;;;;;;24.64;68.60;94769.78;5092849;28;20177;-78
2022/09/10 06:53:28;;;;;;;17.58;8.05;;;;;;;25.07;66.98;94764.03;5092450;28;20169;-78
2022/09/10 06:55:54;;;;;;;12.25;7.45;;;;;;;25.35;66.16;94740.47;5092727;28;20241;-78
2022/09/10 06:58:22;;;;;;;13.57;7.97;;;;;;;26.01;64.52;94760.44;5092734;28;20170;-78
2022/09/10 07:00:49;;;;;;;14.73;7.68;;;;;;;26.68;62.14;94772.63;5092944;28;20193;-78
2022/09/10 07:03:15;;;;;;;12.25;7.95;;;;;;;27.27;61.19;94769.56;5091515;28;20166;-79
2022/09/10 07:05:42;;;;;;;13.15;7.78;;;;;;;27.88;58.66;94763.00;5093212;28;20225;-79
2022/09/10 07:08:11;;;;;;;14.10;9.00;;;;;;;28.06;56.64;94744.81;5092722;28;20177;-79
2022/09/10 07:10:37;;;;;;;21.73;8.82;;;;;;;28.25;55.88;94747.16;5093441;28;20253;-79
2022/09/10 07:13:02;;;;;;;13.88;8.88;;;;;;;28.51;55.49;94761.38;5092882;28;20268;-79
2022/09/10 07:15:27;;;;;;;16.92;8.30;;;;;;;28.82;56.98;94758.38;5092584;28;20200;-78
2022/09/10 07:17:53;;;;;;;14.98;8.40;;;;;;;28.76;55.44;94746.94;5092546;28;20699;-79
2022/09/10 07:20:22;;;;;;;12.35;7.30;;;;;;;29.13;53.49;94771.56;5092001;28;20180;-79
2022/09/10 07:22:50;;;;;;;14.63;7.53;;;;;;;29.39;53.17;94766.78;5090530;28;20192;-79
2022/09/10 07:25:16;;;;;;;17.40;7.95;;;;;;;29.49;53.18;94765.59;5091102;28;20257;-79
2022/09/10 07:27:41;;;;;;;13.30;7.70;;;;;;;29.34;51.71;94753.38;5090600;28;20260;-79
2022/09/10 07:30:07;;;;;;;13.02;6.95;;;;;;;29.50;52.32;94759.81;5090724;28;20679;-79
2022/09/10 07:32:34;;;;;;;12.95;7.53;;;;;;;29.78;52.05;94770.09;5092473;28;20174;-79
2022/09/10 07:34:59;;;;;;;15.90;7.35;;;;;;;29.81;50.76;94731.44;5092244;28;20195;-79
2022/09/10 07:37:25;;;;;;;15.85;8.20;;;;;;;30.27;48.61;94765.63;5093206;28;20177;-78
2022/09/10 07:39:50;;;;;;;15.25;8.32;;;;;;;30.20;48.95;94777.03;5091503;28;20669;-79
2022/09/10 07:42:16;;;;;;;9.77;7.00;;;;;;;30.16;49.37;94770.69;5088993;28;20969;-78
2022/09/10 07:44:42;;;;;;;13.00;7.95;;;;;;;30.14;48.84;94775.66;5092291;28;20180;-79
2022/09/10 07:47:07;;;;;;;12.57;7.95;;;;;;;29.71;49.71;94767.13;5090226;28;20190;-79
2022/09/10 07:49:33;;;;;;;8.57;6.72;;;;;;;29.54;52.37;94771.59;5091592;28;20170;-79
2022/09/10 07:51:58;;;;;;;14.60;8.10;;;;;;;29.84;51.38;94766.81;5095479;28;20173;-77
2022/09/10 07:54:24;;;;;;;12.30;6.93;;;;;;;30.23;49.40;94767.41;5086969;28;20637;-76
2022/09/10 07:56:50;;;;;;;12.05;6.97;;;;;;;30.41;49.55;94773.44;5082448;28;20252;-75
2022/09/10 07:59:16;;;;;;;14.57;8.27;;;;;;;30.09;49.46;94754.16;5080843;28;20166;-75
2022/09/10 08:01:41;;;;;;;13.02;7.30;;;;;;;30.11;49.22;94760.03;5088542;28;20678;-74
2022/09/10 08:04:06;;;;;;;11.60;6.93;;;;;;;30.25;50.19;94768.69;5090740;28;20259;-75
2022/09/10 08:06:33;;;;;;;10.07;6.68;;;;;;;30.43;50.49;94766.56;5087974;28;20684;-75
2022/09/10 08:08:58;;;;;;;11.45;7.43;;;;;;;30.01;49.57;94744.19;5082768;28;20174;-75
2022/09/10 08:11:25;;;;;;;22.30;7.53;;;;;;;30.30;49.25;94781.25;5088254;28;20184;-75
2022/09/10 08:13:52;;;;;;;12.80;7.97;;;;;;;30.36;48.45;94785.31;5087828;28;20240;-78
2022/09/10 08:16:21;;;;;;;22.45;8.05;;;;;;;30.15;49.30;94769.09;5082773;28;20558;-76
2022/09/10 08:18:47;;;;;;;10.70;6.82;;;;;;;30.29;50.92;94763.34;5080508;28;20664;-79
2022/09/10 08:21:14;;;;;;;16.30;6.60;;;;;;;30.47;49.80;94725.88;5086362;28;20182;-79
2022/09/10 08:23:40;;;;;;;11.30;7.20;;;;;;;30.93;50.08;94749.13;5088770;28;20185;-80
2022/09/10 08:26:07;;;;;;;17.25;7.88;;;;;;;31.08;46.65;94757.38;5083907;28;20198;-79
2022/09/10 08:28:33;;;;;;;13.27;7.30;;;;;;;31.06;47.39;94756.91;5088215;28;20242;-76
2022/09/10 08:31:02;;;;;;;12.68;7.13;;;;;;;30.71;47.47;94753.88;5088622;28;20181;-79
2022/09/10 08:33:30;;;;;;;17.65;7.38;;;;;;;30.27;49.23;94735.75;5083010;28;20177;-78
2022/09/10 08:35:57;;;;;;;16.95;7.70;;;;;;;29.91;49.10;94742.66;5090036;28;20177;-77
2022/09/10 08:38:30;;;;;;;14.23;7.55;;;;;;;29.61;50.95;94750.13;5087790;28;20188;-77
2022/09/10 08:40:58;;;;;;;16.77;7.72;;;;;;;29.10;50.80;94728.84;5085621;28;20224;-76
2022/09/10 08:43:41;;;;;;;21.15;8.45;;;;;;;28.88;52.93;94744.31;5083570;28;20182;-75
2022/09/10 08:46:19;;;;;;;11.13;7.47;;;;;;;28.69;53.52;94745.84;5084704;28;20200;-75
2022/09/10 08:48:50;;;;;;;13.60;7.88;;;;;;;28.54;53.00;94747.97;5080014;28;20223;-75
2022/09/10 08:51:26;;;;;;;10.50;7.20;;;;;;;28.38;53.88;94740.72;5079374;28;20680;-76
2022/09/10 08:54:04;;;;;;;10.90;7.22;;;;;;;28.11;53.50;94726.47;5086597;28;20203;-76
2022/09/10 08:56:31;;;;;;;16.67;7.43;;;;;;;28.09;54.64;94747.66;5084035;28;20688;-77
2022/09/10 08:59:01;;;;;;;17.30;7.57;;;;;;;27.98;56.45;94745.63;5081941;28;20185;-78
2022/09/10 09:02:21;;;;;;;13.38;7.60;;;;;;;27.85;55.65;94736.56;5081395;28;20650;-76
2022/09/10 09:05:09;;;;;;;14.45;7.68;;;;;;;27.75;55.91;94747.75;4987055;28;20260;-75
2022/09/10 09:07:38;;;;;;;16.08;7.97;;;;;;;27.85;55.63;94744.69;5079056;28;20221;-75
2022/09/10 09:10:18;;;;;;;11.48;8.05;;;;;;;27.69;56.80;94733.59;5078544;28;20786;-76
2022/09/10 09:12:51;;;;;;;14.00;6.60;;;;;;;27.64;56.93;94722.16;5076806;28;20189;-77
2022/09/10 09:15:34;;;;;;;13.45;7.57;;;;;;;27.52;56.46;94705.75;5061237;28;20192;-76
2022/09/10 09:18:27;;;;;;;19.27;7.65;;;;;;;27.54;57.38;94722.47;5061982;28;20552;-77
2022/09/10 09:20:59;;;;;;;18.67;7.93;;;;;;;27.76;56.16;94706.06;5057570;28;20182;-76
2022/09/10 09:23:35;;;;;;;12.63;7.00;;;;;;;27.86;56.59;94702.19;5076894;28;20170;-77
2022/09/10 09:26:09;;;;;;;13.35;6.80;;;;;;;27.76;56.98;94701.41;5081560;28;20202;-77
2022/09/10 09:28:51;;;;;;;19.58;7.03;;;;;;;27.56;56.80;94698.63;5077923;28;20181;-77
2022/09/10 09:31:25;;;;;;;18.50;6.40;;;;;;;27.34;58.57;94689.53;5076940;28;20221;-77
2022/09/10 09:33:58;;;;;;;7.05;5.90;;;;;;;27.08;57.65;94677.94;5075880;28;20188;-77
2022/09/10 09:36:31;;;;;;;13.52;6.78;;;;;;;27.25;58.89;94680.66;5083917;28;20205;-77
2022/09/10 09:38:57;;;;;;;13.30;7.82;;;;;;;27.20;58.35;94680.03;5079643;28;20178;-76
2022/09/10 09:41:26;;;;;;;16.70;8.10;;;;;;;27.16;58.27;94671.75;5077102;28;20226;-77
2022/09/10 09:43:58;;;;;;;12.50;7.20;;;;;;;27.30;60.41;94668.88;5082641;28;20668;-77
2022/09/10 09:46:24;;;;;;;18.05;6.70;;;;;;;27.45;58.75;94644.03;5079266;28;20289;-77
2022/09/10 09:48:56;;;;;;;26.75;8.55;;;;;;;27.71;57.80;94657.50;5082226;28;20210;-76
2022/09/10 09:51:24;;;;;;;12.63;7.53;;;;;;;27.68;57.22;94655.44;5083174;28;20189;-77
2022/09/10 09:53:52;;;;;;;19.70;7.53;;;;;;;27.82;57.09;94652.53;5081283;28;20166;-76
2022/09/10 09:56:21;;;;;;;18.20;8.35;;;;;;;28.08;56.84;94661.34;5080605;28;20231;-76
2022/09/10 09:58:48;;;;;;;19.88;8.35;;;;;;;28.08;55.65;94637.78;5079064;28;20277;-76
2022/09/10 10:01:22;;;;;;;15.90;8.48;;;;;;;28.17;55.80;94645.88;5070092;28;20193;-77
2022/09/10 10:03:52;;;;;;;12.80;8.05;;;;;;;28.03;56.56;94637.16;5079282;28;20173;-76
2022/09/10 10:06:25;;;;;;;13.65;7.38;;;;;;;28.24;56.77;94626.41;5081314;28;20198;-77
2022/09/10 10:08:56;;;;;;;14.65;7.28;;;;;;;28.21;56.78;94608.09;5064650;28;20181;-77
2022/09/10 10:11:37;;;;;;;13.55;7.43;;;;;;;28.39;55.87;94601.47;5080625;28;20181;-77
2022/09/10 10:14:19;;;;;;;15.23;6.90;;;;;;;28.74;54.70;94616.34;5082466;28;20254;-76
2022/09/10 10:16:47;;;;;;;16.17;6.80;;;;;;;28.71;53.76;94598.06;5077861;28;20203;-76
2022/09/10 10:19:39;;;;;;;16.58;7.45;;;;;;;28.58;54.58;94607.22;5082443;28;20174;-77
2022/09/10 10:22:23;;;;;;;15.80;6.70;;;;;;;28.18;54.75;94606.06;5077817;28;20180;-76
2022/09/10 10:24:50;;;;;;;15.77;6.72;;;;;;;28.02;55.75;94560.56;5072151;28;20185;-77
2022/09/10 10:27:41;;;;;;;24.02;7.97;;;;;;;28.13;55.25;94588.84;5082050;28;20256;-77
2022/09/10 10:30:15;;;;;;;15.82;7.80;;;;;;;28.10;55.50;94594.94;5072884;28;20178;-78
2022/09/10 10:32:56;;;;;;;14.50;8.63;;;;;;;27.82;56.53;94587.59;5086470;28;20233;-77
2022/09/10 10:35:33;;;;;;;14.50;6.80;;;;;;;27.85;56.68;94587.72;5078716;28;20212;-74
2022/09/10 10:38:17;;;;;;;16.33;7.22;;;;;;;28.04;56.11;94590.03;5083272;28;20288;-76
2022/09/10 10:40:55;;;;;;;13.57;7.07;;;;;;;28.14;56.10;94595.84;5081862;28;20229;-75
2022/09/10 10:43:51;;;;;;;17.10;7.53;;;;;;;28.21;54.87;94597.28;5086146;28;20213;-76
2022/09/10 10:46:20;;;;;;;19.52;7.18;;;;;;;28.35;55.46;94578.88;5085287;28;20189;-76
2022/09/10 10:49:33;;;;;;;13.95;6.75;;;;;;;28.32;56.44;94577.63;5070977;28;20543;-75
2022/09/10 10:52:18;;;;;;;13.85;6.68;;;;;;;28.45;54.44;94578.50;5010496;28;20172;-77
2022/09/10 10:55:20;;;;;;;11.32;7.05;;;;;;;28.30;54.42;94569.03;5079077;28;20190;-77
2022/09/10 10:58:08;;;;;;;20.40;6.20;;;;;;;28.01;54.51;94559.00;5079613;28;20574;-76
2022/09/10 11:00:45;;;;;;;16.23;7.50;;;;;;;27.94;55.06;94557.91;5052905;28;21113;-76
2022/09/10 11:03:43;;;;;;;13.55;6.70;;;;;;;28.07;54.96;94583.97;5066130;28;20315;-78
2022/09/10 11:06:18;;;;;;;13.57;6.75;;;;;;;28.03;54.66;94580.31;5077474;28;20753;-76
2022/09/10 11:08:47;;;;;;;13.90;6.47;;;;;;;28.03;54.30;94593.84;5089892;28;20169;-76
2022/09/10 11:11:18;;;;;;;13.88;6.70;;;;;;;28.01;55.32;94623.97;5085385;28;20977;-76
2022/09/10 11:13:52;;;;;;;13.27;6.70;;;;;;;27.95;58.92;94629.88;5086704;28;20170;-77
2022/09/10 11:16:53;;;;;;;30.23;8.40;;;;;;;27.54;68.31;94652.16;5102286;28;20180;-76
2022/09/10 11:19:34;;;;;;;12.45;4.07;;;;;;;26.65;65.14;94673.31;5077927;28;20221;-77
2022/09/10 11:22:24;;;;;;;16.63;4.53;;;;;;;25.21;69.23;94661.59;5092558;28;20169;-77
2022/09/10 11:24:53;;;;;;;11.07;4.18;;;;;;;24.46;69.13;94673.78;5071444;28;20562;-78
2022/09/10 11:27:35;;;;;;;15.70;4.80;;;;;;;23.82;73.95;94682.84;5088766;28;20205;-77
2022/09/10 11:30:04;;;;;;;12.00;3.55;;;;;;;23.30;74.43;94666.00;5092451;28;20188;-77
2022/09/10 11:32:38;;;;;;;9.57;3.67;;;;;;;22.91;76.90;94659.16;5090082;28;20185;-77
2022/09/10 11:35:25;;;;;;;9.57;3.65;;;;;;;22.56;78.91;94638.97;5092205;28;20207;-77
2022/09/10 11:38:06;;;;;;;9.13;4.13;;;;;;;22.41;80.43;94657.16;5101743;28;20249;-76